sensor_id;sensor_type;location;lat;lon;timestamp;P1;durP1;ratioP1;P2;durP2;ratioP2
76379;SDS011;65201;21.060;105.826;2023-01-13T00:00:22;32.13;;;20.27;;
76379;SDS011;65201;21.060;105.826;2023-01-13T00:02:48;30.88;;;19.63;;
76379;SDS011;65201;21.060;105.826;2023-01-13T00:05:14;31.92;;;19.75;;
76379;SDS011;65201;21.060;105.826;2023-01-13T00:07:41;31.92;;;20.75;;
76379;SDS011;65201;21.060;105.826;2023-01-13T00:10:08;30.13;;;20.83;;
76379;SDS011;65201;21.060;105.826;2023-01-13T00:12:37;31.77;;;19.92;;
76379;SDS011;65201;21.060;105.826;2023-01-13T00:15:03;30.88;;;19.50;;
76379;SDS011;65201;21.060;105.826;2023-01-13T00:17:29;32.28;;;21.20;;
76379;SDS011;65201;21.060;105.826;2023-01-13T00:19:55;34.75;;;20.70;;
76379;SDS011;65201;21.060;105.826;2023-01-13T00:22:21;35.03;;;21.00;;
76379;SDS011;65201;21.060;105.826;2023-01-13T00:24:47;34.60;;;19.80;;
76379;SDS011;65201;21.060;105.826;2023-01-13T00:27:14;32.38;;;19.33;;
76379;SDS011;65201;21.060;105.826;2023-01-13T00:29:40;34.38;;;20.02;;
76379;SDS011;65201;21.060;105.826;2023-01-13T00:32:06;30.00;;;18.75;;
76379;SDS011;65201;21.060;105.826;2023-01-13T00:34:32;28.10;;;18.63;;
76379;SDS011;65201;21.060;105.826;2023-01-13T00:36:58;30.80;;;18.92;;
76379;SDS011;65201;21.060;105.826;2023-01-13T00:39:24;29.42;;;19.13;;
76379;SDS011;65201;21.060;105.826;2023-01-13T00:41:50;31.13;;;17.98;;
76379;SDS011;65201;21.060;105.826;2023-01-13T00:44:34;28.63;;;18.50;;
76379;SDS011;65201;21.060;105.826;2023-01-13T00:47:00;31.37;;;18.60;;
76379;SDS011;65201;21.060;105.826;2023-01-13T00:49:26;27.48;;;17.25;;
76379;SDS011;65201;21.060;105.826;2023-01-13T00:51:52;25.75;;;17.42;;
76379;SDS011;65201;21.060;105.826;2023-01-13T00:54:18;27.27;;;16.73;;
76379;SDS011;65201;21.060;105.826;2023-01-13T00:56:44;27.23;;;16.75;;
76379;SDS011;65201;21.060;105.826;2023-01-13T00:59:11;27.17;;;16.70;;
76379;SDS011;65201;21.060;105.826;2023-01-13T01:01:38;27.73;;;17.58;;
76379;SDS011;65201;21.060;105.826;2023-01-13T01:04:04;27.42;;;17.83;;
76379;SDS011;65201;21.060;105.826;2023-01-13T01:06:30;26.63;;;16.83;;
76379;SDS011;65201;21.060;105.826;2023-01-13T01:08:56;27.88;;;17.65;;
76379;SDS011;65201;21.060;105.826;2023-01-13T01:11:24;30.37;;;17.53;;
76379;SDS011;65201;21.060;105.826;2023-01-13T01:13:50;25.15;;;16.10;;
76379;SDS011;65201;21.060;105.826;2023-01-13T01:16:18;25.10;;;16.58;;
76379;SDS011;65201;21.060;105.826;2023-01-13T01:18:45;27.00;;;17.83;;
76379;SDS011;65201;21.060;105.826;2023-01-13T01:21:12;26.05;;;16.90;;
76379;SDS011;65201;21.060;105.826;2023-01-13T01:23:38;28.00;;;16.43;;
76379;SDS011;65201;21.060;105.826;2023-01-13T01:26:06;27.23;;;16.17;;
76379;SDS011;65201;21.060;105.826;2023-01-13T01:28:33;28.15;;;16.67;;
76379;SDS011;65201;21.060;105.826;2023-01-13T01:30:59;26.70;;;16.88;;
76379;SDS011;65201;21.060;105.826;2023-01-13T01:33:26;29.20;;;17.02;;
76379;SDS011;65201;21.060;105.826;2023-01-13T01:35:53;27.70;;;17.17;;
76379;SDS011;65201;21.060;105.826;2023-01-13T01:38:19;24.60;;;16.45;;
76379;SDS011;65201;21.060;105.826;2023-01-13T01:40:47;27.33;;;16.48;;
76379;SDS011;65201;21.060;105.826;2023-01-13T01:43:14;25.25;;;16.38;;
76379;SDS011;65201;21.060;105.826;2023-01-13T01:45:59;26.73;;;16.55;;
76379;SDS011;65201;21.060;105.826;2023-01-13T01:48:25;26.43;;;16.70;;
76379;SDS011;65201;21.060;105.826;2023-01-13T01:50:52;31.48;;;16.50;;
76379;SDS011;65201;21.060;105.826;2023-01-13T01:53:19;25.35;;;15.20;;
76379;SDS011;65201;21.060;105.826;2023-01-13T01:55:48;25.35;;;16.25;;
76379;SDS011;65201;21.060;105.826;2023-01-13T01:58:15;25.02;;;15.65;;
76379;SDS011;65201;21.060;105.826;2023-01-13T02:00:42;24.63;;;16.17;;
76379;SDS011;65201;21.060;105.826;2023-01-13T02:03:09;27.25;;;17.10;;
76379;SDS011;65201;21.060;105.826;2023-01-13T02:05:35;27.38;;;16.27;;
76379;SDS011;65201;21.060;105.826;2023-01-13T02:08:03;27.30;;;17.00;;
76379;SDS011;65201;21.060;105.826;2023-01-13T02:10:30;29.65;;;16.33;;
76379;SDS011;65201;21.060;105.826;2023-01-13T02:13:00;28.63;;;16.83;;
76379;SDS011;65201;21.060;105.826;2023-01-13T02:31:49;26.83;;;16.75;;
76379;SDS011;65201;21.060;105.826;2023-01-13T02:34:26;26.73;;;16.38;;
76379;SDS011;65201;21.060;105.826;2023-01-13T02:36:59;22.27;;;15.30;;
76379;SDS011;65201;21.060;105.826;2023-01-13T02:39:29;23.87;;;15.47;;
76379;SDS011;65201;21.060;105.826;2023-01-13T02:42:06;25.20;;;16.33;;
76379;SDS011;65201;21.060;105.826;2023-01-13T02:44:57;24.40;;;15.32;;
76379;SDS011;65201;21.060;105.826;2023-01-13T02:47:24;24.70;;;15.95;;
76379;SDS011;65201;21.060;105.826;2023-01-13T02:49:54;23.45;;;15.02;;
76379;SDS011;65201;21.060;105.826;2023-01-13T02:54:50;24.55;;;15.45;;
76379;SDS011;65201;21.060;105.826;2023-01-13T02:57:19;23.38;;;15.00;;
76379;SDS011;65201;21.060;105.826;2023-01-13T02:59:45;23.63;;;15.15;;
76379;SDS011;65201;21.060;105.826;2023-01-13T03:02:12;22.90;;;14.57;;
76379;SDS011;65201;21.060;105.826;2023-01-13T03:04:50;24.50;;;14.67;;
76379;SDS011;65201;21.060;105.826;2023-01-13T03:20:24;19.38;;;12.98;;
76379;SDS011;65201;21.060;105.826;2023-01-13T03:25:37;19.42;;;13.50;;
76379;SDS011;65201;21.060;105.826;2023-01-13T03:28:09;19.50;;;13.60;;
76379;SDS011;65201;21.060;105.826;2023-01-13T03:30:48;19.60;;;13.20;;
76379;SDS011;65201;21.060;105.826;2023-01-13T03:33:17;21.17;;;13.27;;
76379;SDS011;65201;21.060;105.826;2023-01-13T03:35:45;18.25;;;12.98;;
76379;SDS011;65201;21.060;105.826;2023-01-13T03:38:15;18.45;;;13.35;;
76379;SDS011;65201;21.060;105.826;2023-01-13T03:40:44;20.52;;;13.57;;
76379;SDS011;65201;21.060;105.826;2023-01-13T03:43:15;17.87;;;12.93;;
76379;SDS011;65201;21.060;105.826;2023-01-13T03:46:05;19.67;;;12.93;;
76379;SDS011;65201;21.060;105.826;2023-01-13T03:48:34;22.42;;;13.23;;
76379;SDS011;65201;21.060;105.826;2023-01-13T03:51:04;22.25;;;13.48;;
76379;SDS011;65201;21.060;105.826;2023-01-13T03:53:35;20.15;;;13.63;;
76379;SDS011;65201;21.060;105.826;2023-01-13T03:56:05;26.30;;;13.43;;
76379;SDS011;65201;21.060;105.826;2023-01-13T03:58:34;24.45;;;13.52;;
76379;SDS011;65201;21.060;105.826;2023-01-13T04:03:49;17.42;;;12.85;;
76379;SDS011;65201;21.060;105.826;2023-01-13T04:08:56;19.57;;;13.37;;
76379;SDS011;65201;21.060;105.826;2023-01-13T04:11:34;21.27;;;14.00;;
76379;SDS011;65201;21.060;105.826;2023-01-13T04:14:02;20.42;;;13.98;;
76379;SDS011;65201;21.060;105.826;2023-01-13T04:16:30;21.60;;;13.52;;
76379;SDS011;65201;21.060;105.826;2023-01-13T04:18:57;21.27;;;14.98;;
76379;SDS011;65201;21.060;105.826;2023-01-13T04:21:23;19.67;;;13.60;;
76379;SDS011;65201;21.060;105.826;2023-01-13T04:23:49;21.35;;;13.63;;
76379;SDS011;65201;21.060;105.826;2023-01-13T04:26:18;20.92;;;14.02;;
76379;SDS011;65201;21.060;105.826;2023-01-13T04:28:44;21.25;;;13.57;;
76379;SDS011;65201;21.060;105.826;2023-01-13T04:31:10;21.73;;;13.82;;
76379;SDS011;65201;21.060;105.826;2023-01-13T04:33:37;22.50;;;14.13;;
76379;SDS011;65201;21.060;105.826;2023-01-13T04:36:03;22.67;;;14.45;;
76379;SDS011;65201;21.060;105.826;2023-01-13T04:38:29;20.35;;;14.00;;
76379;SDS011;65201;21.060;105.826;2023-01-13T04:40:55;21.23;;;13.38;;
76379;SDS011;65201;21.060;105.826;2023-01-13T04:43:21;21.88;;;13.88;;
76379;SDS011;65201;21.060;105.826;2023-01-13T04:45:47;20.97;;;13.87;;
76379;SDS011;65201;21.060;105.826;2023-01-13T04:48:13;18.90;;;13.85;;
76379;SDS011;65201;21.060;105.826;2023-01-13T04:50:39;20.98;;;14.48;;
76379;SDS011;65201;21.060;105.826;2023-01-13T04:53:06;19.83;;;13.82;;
76379;SDS011;65201;21.060;105.826;2023-01-13T04:55:32;18.98;;;14.25;;
76379;SDS011;65201;21.060;105.826;2023-01-13T04:58:02;20.47;;;13.97;;
76379;SDS011;65201;21.060;105.826;2023-01-13T05:00:28;20.50;;;14.00;;
76379;SDS011;65201;21.060;105.826;2023-01-13T05:02:54;20.10;;;14.18;;
76379;SDS011;65201;21.060;105.826;2023-01-13T05:05:20;20.85;;;14.10;;
76379;SDS011;65201;21.060;105.826;2023-01-13T05:07:46;19.95;;;14.10;;
76379;SDS011;65201;21.060;105.826;2023-01-13T05:10:12;21.33;;;14.33;;
76379;SDS011;65201;21.060;105.826;2023-01-13T05:12:38;21.33;;;14.57;;
76379;SDS011;65201;21.060;105.826;2023-01-13T05:15:22;20.42;;;14.65;;
76379;SDS011;65201;21.060;105.826;2023-01-13T05:18:06;21.63;;;15.02;;
76379;SDS011;65201;21.060;105.826;2023-01-13T05:20:33;23.67;;;15.57;;
76379;SDS011;65201;21.060;105.826;2023-01-13T05:22:59;20.87;;;14.80;;
76379;SDS011;65201;21.060;105.826;2023-01-13T05:25:43;21.20;;;14.32;;
76379;SDS011;65201;21.060;105.826;2023-01-13T05:28:11;21.42;;;14.75;;
76379;SDS011;65201;21.060;105.826;2023-01-13T05:30:38;21.95;;;14.90;;
76379;SDS011;65201;21.060;105.826;2023-01-13T05:33:08;21.55;;;14.95;;
76379;SDS011;65201;21.060;105.826;2023-01-13T05:35:36;22.07;;;15.70;;
76379;SDS011;65201;21.060;105.826;2023-01-13T05:38:02;20.25;;;14.27;;
76379;SDS011;65201;21.060;105.826;2023-01-13T05:40:28;20.73;;;14.95;;
76379;SDS011;65201;21.060;105.826;2023-01-13T05:43:13;19.27;;;14.07;;
76379;SDS011;65201;21.060;105.826;2023-01-13T05:48:11;23.93;;;14.93;;
76379;SDS011;65201;21.060;105.826;2023-01-13T05:50:38;20.75;;;14.43;;
76379;SDS011;65201;21.060;105.826;2023-01-13T05:53:04;20.08;;;14.52;;
76379;SDS011;65201;21.060;105.826;2023-01-13T05:55:30;20.77;;;14.43;;
76379;SDS011;65201;21.060;105.826;2023-01-13T05:57:56;22.63;;;15.20;;
76379;SDS011;65201;21.060;105.826;2023-01-13T06:00:23;20.37;;;14.83;;
76379;SDS011;65201;21.060;105.826;2023-01-13T06:02:49;21.20;;;15.10;;
76379;SDS011;65201;21.060;105.826;2023-01-13T06:05:15;21.80;;;14.90;;
76379;SDS011;65201;21.060;105.826;2023-01-13T06:07:41;22.33;;;14.95;;
76379;SDS011;65201;21.060;105.826;2023-01-13T06:10:07;20.75;;;14.40;;
76379;SDS011;65201;21.060;105.826;2023-01-13T06:12:33;19.07;;;14.57;;
76379;SDS011;65201;21.060;105.826;2023-01-13T06:15:03;19.42;;;14.02;;
76379;SDS011;65201;21.060;105.826;2023-01-13T06:17:30;21.25;;;14.30;;
76379;SDS011;65201;21.060;105.826;2023-01-13T06:19:56;20.10;;;15.38;;
76379;SDS011;65201;21.060;105.826;2023-01-13T06:22:23;22.02;;;14.88;;
76379;SDS011;65201;21.060;105.826;2023-01-13T06:24:50;19.37;;;14.47;;
76379;SDS011;65201;21.060;105.826;2023-01-13T06:27:17;20.95;;;14.35;;
76379;SDS011;65201;21.060;105.826;2023-01-13T06:29:44;21.23;;;14.88;;
76379;SDS011;65201;21.060;105.826;2023-01-13T06:32:15;22.73;;;15.07;;
76379;SDS011;65201;21.060;105.826;2023-01-13T06:34:43;20.65;;;15.52;;
76379;SDS011;65201;21.060;105.826;2023-01-13T06:37:13;26.80;;;17.70;;
76379;SDS011;65201;21.060;105.826;2023-01-13T06:39:41;33.03;;;21.23;;
76379;SDS011;65201;21.060;105.826;2023-01-13T06:42:07;29.85;;;19.25;;
76379;SDS011;65201;21.060;105.826;2023-01-13T06:44:51;31.75;;;18.73;;
76379;SDS011;65201;21.060;105.826;2023-01-13T06:47:18;34.00;;;21.50;;
76379;SDS011;65201;21.060;105.826;2023-01-13T06:49:46;30.80;;;21.33;;
76379;SDS011;65201;21.060;105.826;2023-01-13T06:52:13;32.45;;;21.38;;
76379;SDS011;65201;21.060;105.826;2023-01-13T06:54:39;32.55;;;21.15;;
76379;SDS011;65201;21.060;105.826;2023-01-13T06:57:05;37.10;;;21.92;;
76379;SDS011;65201;21.060;105.826;2023-01-13T06:59:32;30.98;;;21.67;;
76379;SDS011;65201;21.060;105.826;2023-01-13T07:02:01;31.17;;;21.33;;
76379;SDS011;65201;21.060;105.826;2023-01-13T07:04:27;29.05;;;21.20;;
76379;SDS011;65201;21.060;105.826;2023-01-13T07:06:53;31.88;;;21.65;;
76379;SDS011;65201;21.060;105.826;2023-01-13T07:09:19;33.13;;;21.20;;
76379;SDS011;65201;21.060;105.826;2023-01-13T07:11:45;33.30;;;21.13;;
76379;SDS011;65201;21.060;105.826;2023-01-13T07:14:11;28.93;;;20.50;;
76379;SDS011;65201;21.060;105.826;2023-01-13T07:16:56;29.23;;;19.95;;
76379;SDS011;65201;21.060;105.826;2023-01-13T07:19:22;31.98;;;20.50;;
76379;SDS011;65201;21.060;105.826;2023-01-13T07:21:51;33.30;;;20.98;;
76379;SDS011;65201;21.060;105.826;2023-01-13T07:24:17;29.92;;;20.85;;
76379;SDS011;65201;21.060;105.826;2023-01-13T07:26:44;30.33;;;19.93;;
76379;SDS011;65201;21.060;105.826;2023-01-13T07:29:10;29.42;;;19.42;;
76379;SDS011;65201;21.060;105.826;2023-01-13T07:31:36;30.00;;;20.70;;
76379;SDS011;65201;21.060;105.826;2023-01-13T07:34:03;26.83;;;18.52;;
76379;SDS011;65201;21.060;105.826;2023-01-13T07:36:29;26.88;;;19.05;;
76379;SDS011;65201;21.060;105.826;2023-01-13T07:38:56;29.33;;;18.87;;
76379;SDS011;65201;21.060;105.826;2023-01-13T07:41:22;27.40;;;17.88;;
76379;SDS011;65201;21.060;105.826;2023-01-13T07:44:05;28.05;;;17.90;;
76379;SDS011;65201;21.060;105.826;2023-01-13T07:46:35;27.58;;;17.50;;
76379;SDS011;65201;21.060;105.826;2023-01-13T07:49:01;24.65;;;17.02;;
76379;SDS011;65201;21.060;105.826;2023-01-13T07:51:27;27.63;;;17.50;;
76379;SDS011;65201;21.060;105.826;2023-01-13T07:53:54;29.00;;;17.08;;
76379;SDS011;65201;21.060;105.826;2023-01-13T07:56:20;28.40;;;17.65;;
76379;SDS011;65201;21.060;105.826;2023-01-13T07:58:46;26.23;;;17.40;;
76379;SDS011;65201;21.060;105.826;2023-01-13T08:01:16;27.90;;;16.35;;
76379;SDS011;65201;21.060;105.826;2023-01-13T08:03:42;25.67;;;17.37;;
76379;SDS011;65201;21.060;105.826;2023-01-13T08:06:09;30.48;;;18.23;;
76379;SDS011;65201;21.060;105.826;2023-01-13T08:08:36;25.65;;;17.15;;
76379;SDS011;65201;21.060;105.826;2023-01-13T08:11:03;28.95;;;19.10;;
76379;SDS011;65201;21.060;105.826;2023-01-13T08:13:29;27.25;;;17.33;;
76379;SDS011;65201;21.060;105.826;2023-01-13T08:15:59;27.90;;;18.33;;
76379;SDS011;65201;21.060;105.826;2023-01-13T08:18:26;27.58;;;16.52;;
76379;SDS011;65201;21.060;105.826;2023-01-13T08:20:52;21.85;;;15.27;;
76379;SDS011;65201;21.060;105.826;2023-01-13T08:23:19;26.55;;;16.98;;
76379;SDS011;65201;21.060;105.826;2023-01-13T08:25:45;25.25;;;15.52;;
76379;SDS011;65201;21.060;105.826;2023-01-13T08:28:12;21.27;;;14.53;;
76379;SDS011;65201;21.060;105.826;2023-01-13T08:30:38;24.15;;;15.27;;
76379;SDS011;65201;21.060;105.826;2023-01-13T08:33:08;21.92;;;15.05;;
76379;SDS011;65201;21.060;105.826;2023-01-13T08:35:38;23.17;;;15.48;;
76379;SDS011;65201;21.060;105.826;2023-01-13T08:38:04;22.95;;;15.23;;
76379;SDS011;65201;21.060;105.826;2023-01-13T08:40:30;23.97;;;15.20;;
76379;SDS011;65201;21.060;105.826;2023-01-13T08:42:57;22.85;;;14.60;;
76379;SDS011;65201;21.060;105.826;2023-01-13T08:45:23;19.40;;;14.40;;
76379;SDS011;65201;21.060;105.826;2023-01-13T08:47:49;23.83;;;14.95;;
76379;SDS011;65201;21.060;105.826;2023-01-13T08:50:15;23.77;;;14.45;;
76379;SDS011;65201;21.060;105.826;2023-01-13T08:52:42;19.23;;;14.20;;
76379;SDS011;65201;21.060;105.826;2023-01-13T08:55:08;20.83;;;14.50;;
76379;SDS011;65201;21.060;105.826;2023-01-13T08:57:34;19.75;;;14.75;;
76379;SDS011;65201;21.060;105.826;2023-01-13T09:00:00;18.08;;;13.90;;
76379;SDS011;65201;21.060;105.826;2023-01-13T09:02:26;22.73;;;14.20;;
76379;SDS011;65201;21.060;105.826;2023-01-13T09:04:52;18.57;;;13.63;;
76379;SDS011;65201;21.060;105.826;2023-01-13T09:07:19;20.75;;;14.02;;
76379;SDS011;65201;21.060;105.826;2023-01-13T09:09:45;19.85;;;13.60;;
76379;SDS011;65201;21.060;105.826;2023-01-13T09:12:13;21.92;;;14.38;;
76379;SDS011;65201;21.060;105.826;2023-01-13T09:14:57;18.65;;;13.90;;
76379;SDS011;65201;21.060;105.826;2023-01-13T09:17:23;20.63;;;14.33;;
76379;SDS011;65201;21.060;105.826;2023-01-13T09:19:49;18.52;;;13.90;;
76379;SDS011;65201;21.060;105.826;2023-01-13T09:22:17;18.13;;;13.65;;
76379;SDS011;65201;21.060;105.826;2023-01-13T09:24:43;23.38;;;14.00;;
76379;SDS011;65201;21.060;105.826;2023-01-13T09:27:10;20.55;;;14.73;;
76379;SDS011;65201;21.060;105.826;2023-01-13T09:29:36;23.23;;;14.50;;
76379;SDS011;65201;21.060;105.826;2023-01-13T09:32:03;19.17;;;14.27;;
76379;SDS011;65201;21.060;105.826;2023-01-13T09:34:29;19.88;;;14.60;;
76379;SDS011;65201;21.060;105.826;2023-01-13T09:37:13;18.35;;;13.50;;
76379;SDS011;65201;21.060;105.826;2023-01-13T09:39:39;19.33;;;14.73;;
76379;SDS011;65201;21.060;105.826;2023-01-13T09:45:00;20.52;;;14.30;;
76379;SDS011;65201;21.060;105.826;2023-01-13T09:47:39;25.52;;;15.93;;
76379;SDS011;65201;21.060;105.826;2023-01-13T09:50:17;22.27;;;15.00;;
76379;SDS011;65201;21.060;105.826;2023-01-13T09:52:44;21.00;;;15.07;;
76379;SDS011;65201;21.060;105.826;2023-01-13T09:55:13;23.43;;;14.93;;
76379;SDS011;65201;21.060;105.826;2023-01-13T09:57:40;21.92;;;15.60;;
76379;SDS011;65201;21.060;105.826;2023-01-13T10:00:12;27.60;;;15.55;;
76379;SDS011;65201;21.060;105.826;2023-01-13T10:05:58;22.55;;;14.93;;
76379;SDS011;65201;21.060;105.826;2023-01-13T10:08:30;23.40;;;15.07;;
76379;SDS011;65201;21.060;105.826;2023-01-13T10:11:18;18.45;;;14.40;;
76379;SDS011;65201;21.060;105.826;2023-01-13T10:14:24;21.98;;;14.30;;
76379;SDS011;65201;21.060;105.826;2023-01-13T10:16:56;21.60;;;13.98;;
76379;SDS011;65201;21.060;105.826;2023-01-13T10:19:32;19.08;;;13.82;;
76379;SDS011;65201;21.060;105.826;2023-01-13T10:22:11;18.53;;;14.27;;
76379;SDS011;65201;21.060;105.826;2023-01-13T10:27:28;19.70;;;14.13;;
76379;SDS011;65201;21.060;105.826;2023-01-13T10:29:57;24.55;;;14.40;;
76379;SDS011;65201;21.060;105.826;2023-01-13T10:32:23;19.88;;;13.48;;
76379;SDS011;65201;21.060;105.826;2023-01-13T10:34:50;16.63;;;12.63;;
76379;SDS011;65201;21.060;105.826;2023-01-13T10:37:24;18.02;;;12.77;;
76379;SDS011;65201;21.060;105.826;2023-01-13T10:39:52;18.60;;;13.50;;
76379;SDS011;65201;21.060;105.826;2023-01-13T10:42:19;20.25;;;14.80;;
76379;SDS011;65201;21.060;105.826;2023-01-13T10:49:59;22.27;;;15.57;;
76379;SDS011;65201;21.060;105.826;2023-01-13T10:52:27;19.55;;;14.57;;
76379;SDS011;65201;21.060;105.826;2023-01-13T10:54:53;19.50;;;13.27;;
76379;SDS011;65201;21.060;105.826;2023-01-13T10:57:21;24.25;;;13.88;;
76379;SDS011;65201;21.060;105.826;2023-01-13T10:59:48;20.23;;;13.10;;
76379;SDS011;65201;21.060;105.826;2023-01-13T11:05:26;20.90;;;14.32;;
76379;SDS011;65201;21.060;105.826;2023-01-13T11:13:20;24.83;;;16.47;;
76379;SDS011;65201;21.060;105.826;2023-01-13T11:15:22;23.83;;;15.70;;
76379;SDS011;65201;21.060;105.826;2023-01-13T11:17:53;30.77;;;16.77;;
76379;SDS011;65201;21.060;105.826;2023-01-13T11:20:37;34.00;;;18.13;;
76379;SDS011;65201;21.060;105.826;2023-01-13T11:23:17;30.38;;;19.70;;
76379;SDS011;65201;21.060;105.826;2023-01-13T11:25:47;33.57;;;20.20;;
76379;SDS011;65201;21.060;105.826;2023-01-13T11:33:33;37.53;;;23.27;;
76379;SDS011;65201;21.060;105.826;2023-01-13T11:36:15;36.05;;;23.15;;
76379;SDS011;65201;21.060;105.826;2023-01-13T11:43:48;44.45;;;26.00;;
76379;SDS011;65201;21.060;105.826;2023-01-13T11:46:15;43.28;;;25.50;;
76379;SDS011;65201;21.060;105.826;2023-01-13T11:48:41;42.10;;;25.50;;
76379;SDS011;65201;21.060;105.826;2023-01-13T11:53:56;39.80;;;24.77;;
76379;SDS011;65201;21.060;105.826;2023-01-13T11:57:27;36.67;;;25.08;;
76379;SDS011;65201;21.060;105.826;2023-01-13T11:59:41;37.38;;;24.63;;
76379;SDS011;65201;21.060;105.826;2023-01-13T12:07:48;40.92;;;25.83;;
76379;SDS011;65201;21.060;105.826;2023-01-13T12:10:21;38.95;;;26.13;;
76379;SDS011;65201;21.060;105.826;2023-01-13T12:12:52;41.78;;;26.40;;
76379;SDS011;65201;21.060;105.826;2023-01-13T12:22:59;40.13;;;25.65;;
76379;SDS011;65201;21.060;105.826;2023-01-13T12:25:29;39.40;;;25.13;;
76379;SDS011;65201;21.060;105.826;2023-01-13T12:32:53;44.10;;;25.75;;
76379;SDS011;65201;21.060;105.826;2023-01-13T12:35:40;40.72;;;25.02;;
76379;SDS011;65201;21.060;105.826;2023-01-13T12:38:15;38.88;;;25.83;;
76379;SDS011;65201;21.060;105.826;2023-01-13T12:43:30;37.47;;;25.00;;
76379;SDS011;65201;21.060;105.826;2023-01-13T12:51:27;40.60;;;25.95;;
76379;SDS011;65201;21.060;105.826;2023-01-13T12:53:54;41.90;;;27.02;;
76379;SDS011;65201;21.060;105.826;2023-01-13T13:01:46;42.88;;;26.17;;
76379;SDS011;65201;21.060;105.826;2023-01-13T13:04:14;44.75;;;26.23;;
76379;SDS011;65201;21.060;105.826;2023-01-13T13:06:43;40.25;;;26.92;;
76379;SDS011;65201;21.060;105.826;2023-01-13T13:09:16;40.00;;;27.83;;
76379;SDS011;65201;21.060;105.826;2023-01-13T13:11:47;42.58;;;26.45;;
76379;SDS011;65201;21.060;105.826;2023-01-13T13:19:53;41.17;;;27.27;;
76379;SDS011;65201;21.060;105.826;2023-01-13T13:22:35;39.90;;;27.13;;
76379;SDS011;65201;21.060;105.826;2023-01-13T13:40:43;35.30;;;23.73;;
76379;SDS011;65201;21.060;105.826;2023-01-13T13:43:29;34.72;;;23.05;;
76379;SDS011;65201;21.060;105.826;2023-01-13T13:46:34;33.58;;;21.63;;
76379;SDS011;65201;21.060;105.826;2023-01-13T13:49:18;35.80;;;22.67;;
76379;SDS011;65201;21.060;105.826;2023-01-13T13:51:46;33.72;;;22.20;;
76379;SDS011;65201;21.060;105.826;2023-01-13T13:54:15;33.50;;;22.33;;
76379;SDS011;65201;21.060;105.826;2023-01-13T13:56:43;33.67;;;22.65;;
76379;SDS011;65201;21.060;105.826;2023-01-13T13:59:15;35.45;;;22.73;;
76379;SDS011;65201;21.060;105.826;2023-01-13T14:01:43;37.80;;;23.70;;
76379;SDS011;65201;21.060;105.826;2023-01-13T14:04:18;35.67;;;23.55;;
76379;SDS011;65201;21.060;105.826;2023-01-13T14:06:49;35.13;;;24.55;;
76379;SDS011;65201;21.060;105.826;2023-01-13T14:09:16;36.65;;;24.30;;
76379;SDS011;65201;21.060;105.826;2023-01-13T14:11:52;40.35;;;24.70;;
76379;SDS011;65201;21.060;105.826;2023-01-13T14:14:19;32.90;;;22.67;;
76379;SDS011;65201;21.060;105.826;2023-01-13T14:16:45;33.75;;;24.08;;
76379;SDS011;65201;21.060;105.826;2023-01-13T14:19:24;40.88;;;24.83;;
76379;SDS011;65201;21.060;105.826;2023-01-13T14:21:55;35.83;;;24.45;;
76379;SDS011;65201;21.060;105.826;2023-01-13T14:24:24;39.35;;;24.55;;
76379;SDS011;65201;21.060;105.826;2023-01-13T14:26:51;43.60;;;26.67;;
76379;SDS011;65201;21.060;105.826;2023-01-13T14:29:21;39.38;;;25.15;;
76379;SDS011;65201;21.060;105.826;2023-01-13T14:31:49;40.97;;;25.08;;
76379;SDS011;65201;21.060;105.826;2023-01-13T14:34:16;42.08;;;26.20;;
76379;SDS011;65201;21.060;105.826;2023-01-13T14:36:46;42.10;;;25.88;;
76379;SDS011;65201;21.060;105.826;2023-01-13T14:44:21;37.70;;;24.75;;
76379;SDS011;65201;21.060;105.826;2023-01-13T14:46:49;38.47;;;24.88;;
76379;SDS011;65201;21.060;105.826;2023-01-13T14:52:01;39.50;;;25.30;;
76379;SDS011;65201;21.060;105.826;2023-01-13T14:59:56;39.90;;;25.75;;
76379;SDS011;65201;21.060;105.826;2023-01-13T15:04:55;39.83;;;25.30;;
76379;SDS011;65201;21.060;105.826;2023-01-13T15:07:24;42.35;;;25.70;;
76379;SDS011;65201;21.060;105.826;2023-01-13T15:09:54;39.30;;;25.40;;
76379;SDS011;65201;21.060;105.826;2023-01-13T15:12:32;42.25;;;26.20;;
76379;SDS011;65201;21.060;105.826;2023-01-13T15:15:03;42.30;;;26.65;;
76379;SDS011;65201;21.060;105.826;2023-01-13T15:17:29;39.33;;;26.13;;
76379;SDS011;65201;21.060;105.826;2023-01-13T15:19:55;42.05;;;25.50;;
76379;SDS011;65201;21.060;105.826;2023-01-13T15:22:22;41.00;;;27.23;;
76379;SDS011;65201;21.060;105.826;2023-01-13T15:24:48;44.10;;;26.92;;
76379;SDS011;65201;21.060;105.826;2023-01-13T15:27:17;41.25;;;26.67;;
76379;SDS011;65201;21.060;105.826;2023-01-13T15:29:44;39.47;;;25.63;;
76379;SDS011;65201;21.060;105.826;2023-01-13T15:32:16;41.67;;;25.65;;
76379;SDS011;65201;21.060;105.826;2023-01-13T15:34:43;42.63;;;26.02;;
76379;SDS011;65201;21.060;105.826;2023-01-13T15:37:09;41.53;;;25.85;;
76379;SDS011;65201;21.060;105.826;2023-01-13T15:39:35;39.42;;;24.58;;
76379;SDS011;65201;21.060;105.826;2023-01-13T15:42:01;40.83;;;24.87;;
76379;SDS011;65201;21.060;105.826;2023-01-13T15:44:45;37.72;;;24.27;;
76379;SDS011;65201;21.060;105.826;2023-01-13T15:47:29;40.17;;;24.45;;
76379;SDS011;65201;21.060;105.826;2023-01-13T15:49:55;38.55;;;25.00;;
76379;SDS011;65201;21.060;105.826;2023-01-13T15:52:23;42.78;;;25.13;;
76379;SDS011;65201;21.060;105.826;2023-01-13T15:54:50;41.10;;;25.63;;
76379;SDS011;65201;21.060;105.826;2023-01-13T15:59:49;38.97;;;24.88;;
76379;SDS011;65201;21.060;105.826;2023-01-13T16:02:15;39.40;;;25.58;;
76379;SDS011;65201;21.060;105.826;2023-01-13T16:04:43;40.85;;;24.92;;
76379;SDS011;65201;21.060;105.826;2023-01-13T16:07:16;35.10;;;23.93;;
76379;SDS011;65201;21.060;105.826;2023-01-13T16:09:43;38.75;;;23.75;;
76379;SDS011;65201;21.060;105.826;2023-01-13T16:12:10;37.42;;;23.83;;
76379;SDS011;65201;21.060;105.826;2023-01-13T16:14:36;37.60;;;23.90;;
76379;SDS011;65201;21.060;105.826;2023-01-13T16:17:02;37.28;;;24.50;;
76379;SDS011;65201;21.060;105.826;2023-01-13T16:19:28;39.43;;;24.47;;
76379;SDS011;65201;21.060;105.826;2023-01-13T16:21:55;42.60;;;24.92;;
76379;SDS011;65201;21.060;105.826;2023-01-13T16:24:24;37.72;;;24.25;;
76379;SDS011;65201;21.060;105.826;2023-01-13T16:26:50;38.58;;;24.77;;
76379;SDS011;65201;21.060;105.826;2023-01-13T16:29:16;39.47;;;24.95;;
76379;SDS011;65201;21.060;105.826;2023-01-13T16:31:42;41.60;;;25.13;;
76379;SDS011;65201;21.060;105.826;2023-01-13T16:34:08;39.28;;;25.30;;
76379;SDS011;65201;21.060;105.826;2023-01-13T16:36:34;39.95;;;25.25;;